Time;durP1;ratioP1;P1;durP2;ratioP2;P2;SDS_P1;SDS_P2;PMS_P1;PMS_P2;Temp;Humidity;BMP_temperature;BMP_pressure;BME280_temperature;BME280_humidity;BME280_pressure;Samples;Min_cycle;Max_cycle;Signal;HPM_P1;HPM_P2
2022/07/16 00:01:23;;;;;;;;;;;;;;;15.52;59.09;99263.09;5007131;28;19930;-67
2022/07/16 00:03:49;;;;;;;;;;;;;;;15.48;59.13;99264.09;4985444;28;19983;-63
2022/07/16 00:06:15;;;;;;;;;;;;;;;15.44;59.72;99270.22;5003201;28;20359;-64
2022/07/16 00:08:42;;;;;;;;;;;;;;;15.44;59.50;99284.00;4989231;28;20398;-64
2022/07/16 00:11:08;;;;;;;;;;;;;;;15.44;59.98;99272.16;4990116;28;19956;-65
2022/07/16 00:13:33;;;;;;;;;;;;;;;15.45;59.88;99280.13;5006962;28;19929;-64
2022/07/16 00:15:59;;;;;;;;;;;;;;;15.47;60.09;99279.00;4989811;28;20475;-64
2022/07/16 00:21:09;;;;;;;;;;;;;;;15.33;60.51;99271.66;4988951;28;19929;-64
2022/07/16 00:23:35;;;;;;;;;;;;;;;15.31;60.61;99279.44;5008319;28;19936;-64
2022/07/16 00:26:03;;;;;;;;;;;;;;;15.29;60.79;99276.16;5006150;28;20905;-63
2022/07/16 00:28:28;;;;;;;;;;;;;;;15.30;60.57;99280.56;4989435;28;19979;-64
2022/07/16 00:30:54;;;;;;;;;;;;;;;15.22;60.87;99278.59;4990617;28;19929;-64
2022/07/16 00:33:20;;;;;;;;;;;;;;;15.15;61.29;99282.63;5002807;28;20359;-66
2022/07/16 00:35:45;;;;;;;;;;;;;;;15.14;61.56;99285.69;4986728;28;20370;-64
2022/07/16 00:38:12;;;;;;;;;;;;;;;15.14;61.45;99285.69;4987462;28;19933;-62
2022/07/16 00:40:38;;;;;;;;;;;;;;;15.12;61.59;99288.75;5006196;28;20402;-66
2022/07/16 00:43:09;;;;;;;;;;;;;;;15.10;61.65;99290.22;5004895;28;19936;-66
2022/07/16 00:45:34;;;;;;;;;;;;;;;15.06;61.80;99290.03;5023950;28;19929;-66
2022/07/16 00:48:00;;;;;;;;;;;;;;;15.05;62.05;99296.66;5023409;28;19929;-67
2022/07/16 00:50:26;;;;;;;;;;;;;;;15.01;61.99;99287.44;4989242;28;20398;-67
2022/07/16 00:52:52;;;;;;;;;;;;;;;15.00;62.11;99291.31;5022996;28;20297;-64
2022/07/16 00:55:18;;;;;;;;;;;;;;;14.97;62.14;99287.25;5023752;28;20388;-64
2022/07/16 00:57:43;;;;;;;;;;;;;;;14.94;62.31;99293.38;5005487;28;19929;-63
2022/07/16 01:00:11;;;;;;;;;;;;;;;14.91;62.31;99280.25;5006193;28;20316;-67
2022/07/16 01:02:37;;;;;;;;;;;;;;;14.89;62.45;99285.25;5004862;28;19995;-65
2022/07/16 01:05:03;;;;;;;;;;;;;;;14.88;62.39;99286.38;5003575;28;19937;-68
2022/07/16 01:07:29;;;;;;;;;;;;;;;14.90;62.51;99297.88;4993732;28;19929;-66
2022/07/16 01:09:56;;;;;;;;;;;;;;;14.93;62.72;99300.03;5006768;28;19936;-67
2022/07/16 01:12:22;;;;;;;;;;;;;;;14.90;62.89;99295.13;5008084;28;20296;-65
2022/07/16 01:14:48;;;;;;;;;;;;;;;14.85;63.20;99296.09;4987858;28;19944;-66
2022/07/16 01:17:17;;;;;;;;;;;;;;;14.91;63.33;99302.28;4986823;28;19929;-64
2022/07/16 01:19:43;;;;;;;;;;;;;;;14.95;63.00;99303.25;4990042;28;20055;-66
2022/07/16 01:22:09;;;;;;;;;;;;;;;14.97;62.52;99302.94;5003255;28;20027;-67
2022/07/16 01:24:39;;;;;;;;;;;;;;;14.95;62.70;99299.69;4994388;28;20023;-66
2022/07/16 01:27:04;;;;;;;;;;;;;;;14.91;62.85;99302.28;4989532;28;19933;-67
2022/07/16 01:29:30;;;;;;;;;;;;;;;14.89;62.77;99310.00;4970036;28;19988;-65
2022/07/16 01:31:56;;;;;;;;;;;;;;;14.93;63.00;99311.03;5005184;28;19930;-65
2022/07/16 01:34:24;;;;;;;;;;;;;;;14.91;63.36;99305.03;5004682;28;19929;-64
2022/07/16 01:36:54;;;;;;;;;;;;;;;14.92;63.99;99314.09;5006411;28;19930;-63
2022/07/16 01:39:20;;;;;;;;;;;;;;;14.91;63.83;99307.78;5005727;28;19984;-63
2022/07/16 01:41:50;;;;;;;;;;;;;;;14.89;64.02;99307.25;5005436;28;19930;-64
2022/07/16 01:44:16;;;;;;;;;;;;;;;14.79;63.96;99302.84;5006163;28;19929;-66
2022/07/16 01:46:41;;;;;;;;;;;;;;;14.91;64.01;99317.97;5003675;28;19929;-67
2022/07/16 01:49:07;;;;;;;;;;;;;;;14.84;63.99;99312.91;5023554;28;19928;-67
2022/07/16 01:51:33;;;;;;;;;;;;;;;14.82;64.43;99313.22;5022466;28;19933;-67
2022/07/16 01:53:58;;;;;;;;;;;;;;;14.85;64.92;99317.28;5006338;28;19929;-66
2022/07/16 01:56:24;;;;;;;;;;;;;;;14.85;64.66;99322.78;5003715;28;19956;-64
2022/07/16 01:58:51;;;;;;;;;;;;;;;14.86;64.67;99318.91;5013496;28;19929;-67
2022/07/16 02:01:17;;;;;;;;;;;;;;;14.82;64.59;99321.47;5021103;28;20371;-66
2022/07/16 02:03:43;;;;;;;;;;;;;;;14.85;64.79;99325.53;5022755;28;19960;-67
2022/07/16 02:06:08;;;;;;;;;;;;;;;14.89;64.70;99326.53;5008762;28;20031;-68
2022/07/16 02:08:34;;;;;;;;;;;;;;;14.87;64.86;99323.28;5021821;28;20319;-67
2022/07/16 02:11:00;;;;;;;;;;;;;;;14.83;65.01;99325.03;5008136;28;19929;-66
2022/07/16 02:13:25;;;;;;;;;;;;;;;14.83;64.87;99323.13;5003111;28;19972;-68
2022/07/16 02:15:52;;;;;;;;;;;;;;;14.85;64.90;99322.78;5017629;28;19965;-66
2022/07/16 02:18:18;;;;;;;;;;;;;;;14.87;65.10;99321.34;5023817;28;20002;-66
2022/07/16 02:20:45;;;;;;;;;;;;;;;14.93;65.16;99329.47;5013606;28;19930;-67
2022/07/16 02:23:11;;;;;;;;;;;;;;;14.92;65.21;99325.09;5021990;28;20032;-65
2022/07/16 02:25:36;;;;;;;;;;;;;;;14.91;65.51;99321.53;5027481;28;20031;-65
2022/07/16 02:28:08;;;;;;;;;;;;;;;14.82;65.36;99315.97;5020954;28;20122;-66
2022/07/16 02:30:35;;;;;;;;;;;;;;;15.05;64.64;99334.38;5017248;28;20392;-68
2022/07/16 02:33:02;;;;;;;;;;;;;;;15.07;63.87;99338.44;5022315;28;19975;-66
2022/07/16 02:35:28;;;;;;;;;;;;;;;15.08;63.34;99333.78;5024192;28;20320;-66
2022/07/16 02:37:53;;;;;;;;;;;;;;;15.09;63.48;99338.16;5013319;28;19971;-68
2022/07/16 02:40:19;;;;;;;;;;;;;;;15.09;63.37;99329.88;4995878;28;19955;-66
2022/07/16 02:42:45;;;;;;;;;;;;;;;15.09;63.21;99327.94;5021879;28;19929;-65
2022/07/16 02:45:11;;;;;;;;;;;;;;;15.09;63.35;99332.66;5016737;28;19929;-64
2022/07/16 02:47:37;;;;;;;;;;;;;;;15.11;63.44;99330.38;5001360;28;20364;-63
2022/07/16 02:50:05;;;;;;;;;;;;;;;15.14;63.30;99327.81;5001076;28;19929;-65
2022/07/16 02:52:30;;;;;;;;;;;;;;;15.23;63.17;99335.28;5007931;28;19929;-66
2022/07/16 02:54:56;;;;;;;;;;;;;;;15.25;63.13;99339.34;5003190;28;20475;-67
2022/07/16 02:57:22;;;;;;;;;;;;;;;15.30;63.10;99338.41;4987891;28;19929;-65
2022/07/16 02:59:47;;;;;;;;;;;;;;;15.31;63.09;99340.03;4986329;28;19930;-62
2022/07/16 03:02:13;;;;;;;;;;;;;;;15.33;62.88;99337.75;5003829;28;19936;-65
2022/07/16 03:04:39;;;;;;;;;;;;;;;15.35;62.88;99335.50;5022712;28;19933;-65
2022/07/16 03:07:06;;;;;;;;;;;;;;;15.41;62.61;99336.97;5005402;28;19933;-63
2022/07/16 03:09:32;;;;;;;;;;;;;;;15.47;62.55;99340.41;5002458;28;19953;-64
2022/07/16 03:11:57;;;;;;;;;;;;;;;15.50;62.71;99339.75;5001537;28;19968;-66
2022/07/16 03:14:23;;;;;;;;;;;;;;;15.51;62.51;99341.38;5014140;28;19929;-67
2022/07/16 03:16:49;;;;;;;;;;;;;;;15.49;62.21;99351.91;4986207;28;20013;-63
2022/07/16 03:19:15;;;;;;;;;;;;;;;15.52;62.04;99351.25;5003940;28;19930;-68
2022/07/16 03:21:40;;;;;;;;;;;;;;;15.55;62.27;99352.56;4987860;28;19929;-67
2022/07/16 03:24:07;;;;;;;;;;;;;;;15.55;61.89;99350.66;4985274;28;19929;-67
2022/07/16 03:26:33;;;;;;;;;;;;;;;15.57;61.95;99358.56;4980732;28;20004;-67
2022/07/16 03:28:59;;;;;;;;;;;;;;;15.62;61.54;99363.97;5004586;28;20027;-65
2022/07/16 03:31:25;;;;;;;;;;;;;;;15.70;61.45;99367.88;5009595;28;20028;-67
2022/07/16 03:33:50;;;;;;;;;;;;;;;15.76;61.06;99371.28;5013543;28;19929;-66
2022/07/16 03:36:16;;;;;;;;;;;;;;;15.77;61.06;99373.72;5022593;28;19975;-68
2022/07/16 03:38:59;;;;;;;;;;;;;;;15.78;60.90;99372.59;5017348;28;19933;-66
2022/07/16 03:41:26;;;;;;;;;;;;;;;15.81;60.56;99365.63;5017360;28;20439;-64
2022/07/16 03:43:52;;;;;;;;;;;;;;;15.83;60.77;99374.38;4988886;28;19953;-64
2022/07/16 03:46:18;;;;;;;;;;;;;;;15.85;60.58;99372.13;4988447;28;19938;-67
2022/07/16 03:48:44;;;;;;;;;;;;;;;15.90;60.81;99376.69;5008980;28;20315;-67
2022/07/16 03:51:10;;;;;;;;;;;;;;;15.69;60.28;99344.22;5008939;28;19929;-67
2022/07/16 03:53:36;;;;;;;;;;;;;;;15.98;60.24;99385.00;5021510;28;19935;-67
2022/07/16 03:56:02;;;;;;;;;;;;;;;16.06;60.04;99375.09;5020313;28;20426;-66
2022/07/16 03:58:29;;;;;;;;;;;;;;;16.12;59.86;99384.03;5027067;28;19933;-67
2022/07/16 04:00:56;;;;;;;;;;;;;;;16.14;59.65;99387.28;5006964;28;19960;-68
2022/07/16 04:03:22;;;;;;;;;;;;;;;15.94;59.40;99356.44;4996333;28;19929;-67
2022/07/16 04:05:47;;;;;;;;;;;;;;;16.24;58.50;99384.22;5006545;28;20382;-68
2022/07/16 04:08:13;;;;;;;;;;;;;;;16.26;57.86;99383.88;5024233;28;19940;-67
2022/07/16 04:10:39;;;;;;;;;;;;;;;16.31;57.86;99386.47;5024486;28;20399;-68
2022/07/16 04:13:04;;;;;;;;;;;;;;;16.37;57.38;99389.88;5000382;28;19961;-67
2022/07/16 04:15:31;;;;;;;;;;;;;;;16.45;57.41;99383.56;4989480;28;19929;-68
2022/07/16 04:17:57;;;;;;;;;;;;;;;16.51;57.22;99395.25;5008338;28;19980;-67
2022/07/16 04:20:23;;;;;;;;;;;;;;;16.55;56.76;99399.81;5007270;28;19964;-67
2022/07/16 04:22:49;;;;;;;;;;;;;;;16.51;56.52;99384.22;4987465;28;19937;-66
2022/07/16 04:25:15;;;;;;;;;;;;;;;16.65;56.18;99401.44;5009116;28;19976;-65
2022/07/16 04:27:41;;;;;;;;;;;;;;;16.75;56.33;99397.53;5024322;28;20549;-67
2022/07/16 04:30:08;;;;;;;;;;;;;;;16.79;56.02;99401.25;5023246;28;19929;-65
2022/07/16 04:32:35;;;;;;;;;;;;;;;16.84;55.80;99406.59;4952891;28;20060;-65
2022/07/16 04:35:00;;;;;;;;;;;;;;;16.88;55.85;99398.47;5026097;28;19929;-66
2022/07/16 04:37:28;;;;;;;;;;;;;;;16.95;55.97;99398.81;5026332;28;19940;-63
2022/07/16 04:39:53;;;;;;;;;;;;;;;16.98;56.24;99398.13;5027938;28;19960;-67
2022/07/16 04:42:19;;;;;;;;;;;;;;;17.03;56.27;99402.72;4987552;28;20384;-67
2022/07/16 04:44:45;;;;;;;;;;;;;;;17.04;56.51;99403.50;5003291;28;19936;-63
2022/07/16 04:47:11;;;;;;;;;;;;;;;17.01;56.94;99402.22;4987572;28;20363;-64
2022/07/16 04:49:38;;;;;;;;;;;;;;;17.00;56.89;99403.34;5007028;28;19961;-64
2022/07/16 04:52:04;;;;;;;;;;;;;;;17.01;56.79;99404.97;4989255;28;19929;-64
2022/07/16 04:54:30;;;;;;;;;;;;;;;16.99;56.85;99407.25;5008741;28;20280;-65
2022/07/16 04:56:55;;;;;;;;;;;;;;;17.03;56.93;99408.25;5007066;28;19937;-66
2022/07/16 04:59:21;;;;;;;;;;;;;;;17.04;57.08;99406.28;5006081;28;19930;-67
2022/07/16 05:01:48;;;;;;;;;;;;;;;17.06;56.94;99409.50;5008638;28;20232;-68
2022/07/16 05:04:14;;;;;;;;;;;;;;;17.11;57.09;99412.13;4969418;28;19949;-67
2022/07/16 05:06:41;;;;;;;;;;;;;;;17.15;56.36;99411.13;4982809;28;19930;-67
2022/07/16 05:09:07;;;;;;;;;;;;;;;17.17;56.53;99408.03;4984980;28;20418;-67
2022/07/16 05:11:33;;;;;;;;;;;;;;;17.21;56.16;99414.50;4984618;28;19934;-65
2022/07/16 05:13:58;;;;;;;;;;;;;;;17.23;56.41;99417.75;5002326;28;19929;-64
2022/07/16 05:16:24;;;;;;;;;;;;;;;17.21;56.41;99417.28;5003976;28;19930;-64
2022/07/16 05:18:50;;;;;;;;;;;;;;;17.30;56.47;99414.50;5005287;28;19952;-65
2022/07/16 05:21:16;;;;;;;;;;;;;;;17.39;56.26;99412.53;5000610;28;19933;-65
2022/07/16 05:23:43;;;;;;;;;;;;;;;17.50;55.86;99409.41;5002496;28;19936;-64
2022/07/16 05:26:09;;;;;;;;;;;;;;;17.58;55.93;99409.38;5002974;28;19929;-65
2022/07/16 05:28:35;;;;;;;;;;;;;;;17.64;55.22;99409.19;5005834;28;19929;-64
2022/07/16 05:31:01;;;;;;;;;;;;;;;17.71;55.64;99417.75;5000869;28;19965;-65
2022/07/16 05:33:26;;;;;;;;;;;;;;;17.77;55.84;99415.63;4987579;28;19956;-65
2022/07/16 05:35:52;;;;;;;;;;;;;;;17.80;54.06;99418.53;4966299;28;19941;-66
2022/07/16 05:38:18;;;;;;;;;;;;;;;17.79;53.91;99427.16;4992675;28;20350;-66
2022/07/16 05:40:45;;;;;;;;;;;;;;;17.81;54.11;99427.66;4985832;28;20032;-67
2022/07/16 05:43:11;;;;;;;;;;;;;;;17.83;53.97;99431.69;4983919;28;19957;-65
2022/07/16 05:45:37;;;;;;;;;;;;;;;17.92;54.20;99428.06;4987405;28;20419;-67
2022/07/16 05:48:03;;;;;;;;;;;;;;;18.00;53.82;99433.56;4986175;28;20412;-68
2022/07/16 05:50:28;;;;;;;;;;;;;;;18.11;54.05;99433.22;4987051;28;19936;-68
2022/07/16 05:52:54;;;;;;;;;;;;;;;18.21;53.61;99427.28;4982611;28;20027;-68
2022/07/16 05:55:20;;;;;;;;;;;;;;;18.31;53.31;99428.84;4994086;28;19955;-66
2022/07/16 05:57:47;;;;;;;;;;;;;;;18.30;52.41;99427.22;4987268;28;19930;-68
2022/07/16 06:00:13;;;;;;;;;;;;;;;18.33;52.54;99425.75;5002089;28;20058;-67
2022/07/16 06:02:40;;;;;;;;;;;;;;;18.33;52.52;99432.06;4997231;28;20397;-68
2022/07/16 06:05:07;;;;;;;;;;;;;;;18.30;51.43;99434.72;4986297;28;20023;-68
2022/07/16 06:07:32;;;;;;;;;;;;;;;18.25;51.22;99432.97;4983712;28;19953;-68
2022/07/16 06:09:58;;;;;;;;;;;;;;;18.25;51.80;99435.72;4985947;28;20369;-64
2022/07/16 06:12:24;;;;;;;;;;;;;;;18.27;52.36;99439.78;4984496;28;20032;-64
2022/07/16 06:14:51;;;;;;;;;;;;;;;18.28;52.41;99440.56;4984346;28;19930;-64
2022/07/16 06:17:17;;;;;;;;;;;;;;;18.33;51.89;99447.88;4982677;28;19972;-64
2022/07/16 06:19:43;;;;;;;;;;;;;;;18.34;51.63;99455.84;4969424;28;19965;-64
2022/07/16 06:22:09;;;;;;;;;;;;;;;18.35;51.40;99445.59;4998434;28;19979;-65
2022/07/16 06:24:35;;;;;;;;;;;;;;;18.43;51.15;99441.97;5004805;28;20307;-65
2022/07/16 06:27:01;;;;;;;;;;;;;;;18.53;51.13;99444.31;5002288;28;19940;-65
2022/07/16 06:29:27;;;;;;;;;;;;;;;18.67;50.14;99444.06;5003933;28;19937;-65
2022/07/16 06:31:56;;;;;;;;;;;;;;;18.79;50.19;99442.47;4987583;28;20152;-65
2022/07/16 06:34:22;;;;;;;;;;;;;;;18.94;49.79;99450.16;4982616;28;20290;-65
2022/07/16 06:36:48;;;;;;;;;;;;;;;19.02;49.75;99440.16;4967323;28;19929;-64
2022/07/16 06:39:13;;;;;;;;;;;;;;;19.09;48.98;99448.75;4984662;28;19934;-67
2022/07/16 06:41:41;;;;;;;;;;;;;;;19.07;49.02;99439.16;4983672;28;19929;-68
2022/07/16 06:44:09;;;;;;;;;;;;;;;19.08;49.00;99451.84;4965983;28;20389;-64
2022/07/16 06:46:35;;;;;;;;;;;;;;;19.14;48.47;99453.28;4985304;28;19944;-64
2022/07/16 06:49:02;;;;;;;;;;;;;;;19.20;48.32;99431.69;4967504;28;20379;-65
2022/07/16 06:51:28;;;;;;;;;;;;;;;19.08;48.18;99451.84;4984732;28;19929;-64
2022/07/16 06:53:54;;;;;;;;;;;;;;;19.13;47.56;99444.16;4981680;28;20447;-64
2022/07/16 06:56:20;;;;;;;;;;;;;;;19.30;47.91;99442.34;4986961;28;19933;-64
2022/07/16 06:58:46;;;;;;;;;;;;;;;19.49;47.42;99433.50;4985943;28;19930;-64
2022/07/16 07:01:12;;;;;;;;;;;;;;;19.52;46.48;99446.66;4963495;28;19936;-64
2022/07/16 07:03:39;;;;;;;;;;;;;;;19.52;46.70;99441.13;4986120;28;20032;-65
2022/07/16 07:06:07;;;;;;;;;;;;;;;19.62;46.40;99450.16;4985444;28;19930;-64
2022/07/16 07:08:32;;;;;;;;;;;;;;;19.63;45.37;99443.44;4999641;28;19953;-65
2022/07/16 07:10:59;;;;;;;;;;;;;;;19.65;45.47;99414.22;5003030;28;19965;-64
2022/07/16 07:13:25;;;;;;;;;;;;;;;19.80;45.58;99440.47;5004631;28;19992;-64
2022/07/16 07:15:51;;;;;;;;;;;;;;;19.89;45.94;99445.88;5004295;28;20399;-67
2022/07/16 07:18:17;;;;;;;;;;;;;;;19.93;46.07;99448.81;5008428;28;19936;-67
2022/07/16 07:20:43;;;;;;;;;;;;;;;20.11;46.10;99452.16;5005441;28;19929;-67
2022/07/16 07:23:10;;;;;;;;;;;;;;;20.25;44.51;99458.16;5007414;28;19940;-64
2022/07/16 07:25:36;;;;;;;;;;;;;;;20.30;43.87;99456.31;5006584;28;20582;-64
2022/07/16 07:28:02;;;;;;;;;;;;;;;20.26;44.00;99458.97;5008354;28;20033;-65
2022/07/16 07:30:29;;;;;;;;;;;;;;;20.01;44.00;99433.22;5005019;28;19929;-65
2022/07/16 07:32:59;;;;;;;;;;;;;;;20.10;43.35;99448.56;5007588;28;19933;-68
2022/07/16 07:35:25;;;;;;;;;;;;;;;20.02;42.85;99465.34;5010897;28;19929;-68
2022/07/16 07:37:51;;;;;;;;;;;;;;;20.15;42.94;99449.50;5006783;28;19937;-67
2022/07/16 07:40:19;;;;;;;;;;;;;;;20.23;43.27;99449.38;5005549;28;20020;-67
2022/07/16 07:42:45;;;;;;;;;;;;;;;20.51;42.81;99445.03;5006730;28;20410;-64
2022/07/16 07:45:11;;;;;;;;;;;;;;;20.71;42.97;99453.56;4991464;28;19929;-68
2022/07/16 07:47:37;;;;;;;;;;;;;;;20.95;42.74;99453.47;5007959;28;20028;-65
2022/07/16 07:50:04;;;;;;;;;;;;;;;20.95;41.79;99442.38;5010446;28;20419;-65
2022/07/16 07:52:29;;;;;;;;;;;;;;;20.80;42.24;99460.63;5005355;28;19929;-64
2022/07/16 07:54:55;;;;;;;;;;;;;;;20.99;42.22;99452.78;4999153;28;20293;-65
2022/07/16 07:57:22;;;;;;;;;;;;;;;21.21;41.93;99468.06;5003829;28;20027;-64
2022/07/16 07:59:48;;;;;;;;;;;;;;;21.47;42.29;99450.09;5006134;28;20550;-68
2022/07/16 08:02:14;;;;;;;;;;;;;;;21.88;40.65;99445.22;4992441;28;20032;-68
2022/07/16 08:04:39;;;;;;;;;;;;;;;22.30;39.68;99451.31;5006050;28;19948;-68
2022/07/16 08:07:05;;;;;;;;;;;;;;;22.56;39.20;99439.63;4988184;28;19929;-66
2022/07/16 08:09:31;;;;;;;;;;;;;;;23.01;38.52;99464.38;5002705;28;20428;-67
2022/07/16 08:11:57;;;;;;;;;;;;;;;22.95;37.62;99461.91;5007413;28;20479;-67
2022/07/16 08:14:24;;;;;;;;;;;;;;;22.79;37.93;99452.81;5009746;28;19937;-67
2022/07/16 08:16:50;;;;;;;;;;;;;;;22.34;38.73;99464.16;5006060;28;19930;-68
2022/07/16 08:19:16;;;;;;;;;;;;;;;22.05;38.83;99457.13;4990912;28;20032;-67
2022/07/16 08:21:42;;;;;;;;;;;;;;;21.67;40.00;99449.06;5017189;28;19951;-65
2022/07/16 08:26:52;;;;;;;;;;;;;;;22.70;38.67;99480.06;4997867;28;19972;-64
2022/07/16 08:29:17;;;;;;;;;;;;;;;22.50;38.27;99471.69;5003747;28;19968;-66
2022/07/16 08:31:44;;;;;;;;;;;;;;;22.29;38.39;99455.28;4987710;28;19975;-67
2022/07/16 08:34:10;;;;;;;;;;;;;;;21.71;39.05;99476.19;4976957;28;19929;-69
2022/07/16 08:36:36;;;;;;;;;;;;;;;21.61;39.08;99471.91;4977169;28;20301;-68
2022/07/16 08:39:02;;;;;;;;;;;;;;;22.31;37.95;99478.00;5005601;28;19937;-67
2022/07/16 08:41:29;;;;;;;;;;;;;;;23.05;36.09;99457.72;4967714;28;19930;-65
2022/07/16 08:43:55;;;;;;;;;;;;;;;23.52;35.63;99466.16;4991468;28;20040;-64
2022/07/16 08:46:21;;;;;;;;;;;;;;;24.01;34.72;99461.00;4998313;28;19979;-65
2022/07/16 08:48:48;;;;;;;;;;;;;;;24.64;34.02;99475.50;5004779;28;19929;-64
2022/07/16 08:51:18;;;;;;;;;;;;;;;24.35;34.34;99461.94;5010062;28;20479;-65
2022/07/16 08:53:44;;;;;;;;;;;;;;;24.48;34.29;99464.53;4972727;28;19929;-64
2022/07/16 08:56:10;;;;;;;;;;;;;;;24.97;32.86;99471.16;4993445;28;19939;-65
2022/07/16 08:58:36;;;;;;;;;;;;;;;24.76;32.35;99472.50;5018550;28;20031;-65
2022/07/16 09:01:02;;;;;;;;;;;;;;;24.94;32.42;99457.94;5013866;28;20327;-65
2022/07/16 09:03:28;;;;;;;;;;;;;;;25.52;32.13;99467.00;5014961;28;19944;-65
2022/07/16 09:05:55;;;;;;;;;;;;;;;25.90;31.38;99472.53;5022053;28;19929;-64
2022/07/16 09:08:21;;;;;;;;;;;;;;;25.77;31.68;99460.81;5027750;28;19929;-65
2022/07/16 09:10:47;;;;;;;;;;;;;;;24.72;32.78;99471.63;4969126;28;19929;-64
2022/07/16 09:13:13;;;;;;;;;;;;;;;23.91;34.41;99484.78;5008659;28;19975;-64
2022/07/16 09:15:39;;;;;;;;;;;;;;;24.71;33.38;99472.00;5001436;28;19929;-64
2022/07/16 09:18:06;;;;;;;;;;;;;;;25.21;32.56;99460.66;4990085;28;19941;-65
2022/07/16 09:20:32;;;;;;;;;;;;;;;24.82;32.87;99478.56;5011746;28;19933;-65
2022/07/16 09:22:59;;;;;;;;;;;;;;;23.93;34.62;99468.44;5000906;28;20419;-65
2022/07/16 09:25:25;;;;;;;;;;;;;;;23.22;36.31;99464.00;4994407;28;19976;-64
2022/07/16 09:27:56;;;;;;;;;;;;;;;24.15;34.73;99466.84;4985000;28;19961;-65
2022/07/16 09:30:22;;;;;;;;;;;;;;;24.78;33.35;99463.75;4993712;28;19937;-66
2022/07/16 09:32:48;;;;;;;;;;;;;;;24.64;33.90;99451.16;4995622;28;20356;-68
2022/07/16 09:35:14;;;;;;;;;;;;;;;24.77;34.33;99451.75;5008126;28;19933;-67
2022/07/16 09:37:44;;;;;;;;;;;;;;;25.29;33.32;99455.94;4979825;28;19969;-65
2022/07/16 09:40:11;;;;;;;;;;;;;;;24.98;33.09;99461.59;5005349;28;19929;-68
2022/07/16 09:42:37;;;;;;;;;;;;;;;24.15;34.69;99472.41;5007802;28;19930;-66
2022/07/16 09:45:04;;;;;;;;;;;;;;;24.93;32.87;99461.94;4969606;28;19976;-68
2022/07/16 09:47:31;;;;;;;;;;;;;;;25.93;31.30;99456.94;5000713;28;19976;-68
2022/07/16 09:49:57;;;;;;;;;;;;;;;25.34;32.39;99472.38;4998496;28;19951;-68
2022/07/16 09:52:27;;;;;;;;;;;;;;;24.75;33.09;99456.09;5023353;28;19929;-68
2022/07/16 09:54:55;;;;;;;;;;;;;;;25.93;31.24;99451.34;5006562;28;19935;-67
2022/07/16 09:57:25;;;;;;;;;;;;;;;27.32;29.03;99471.28;5007048;28;19959;-68
2022/07/16 09:59:52;;;;;;;;;;;;;;;27.16;27.78;99469.66;4997268;28;19972;-65
2022/07/16 10:02:18;;;;;;;;;;;;;;;25.59;28.95;99460.66;4997581;28;19929;-64
2022/07/16 10:04:44;;;;;;;;;;;;;;;24.31;31.73;99482.63;5000765;28;19929;-64
2022/07/16 10:07:10;;;;;;;;;;;;;;;23.41;33.90;99471.56;4968745;28;20209;-65
2022/07/16 10:09:36;;;;;;;;;;;;;;;23.19;35.11;99475.91;4976642;28;19929;-65
2022/07/16 10:12:03;;;;;;;;;;;;;;;23.39;35.11;99465.56;5008733;28;20426;-65
2022/07/16 10:14:33;;;;;;;;;;;;;;;23.73;35.21;99474.13;5012590;28;20411;-65
2022/07/16 10:17:01;;;;;;;;;;;;;;;25.59;32.80;99463.44;4989098;28;19913;-65
2022/07/16 10:19:34;;;;;;;;;;;;;;;27.09;30.18;99468.81;5005599;28;20167;-64
2022/07/16 10:22:16;;;;;;;;;;;;;;;28.24;28.34;99459.75;5005666;28;19937;-65
2022/07/16 10:24:43;;;;;;;;;;;;;;;28.85;26.83;99452.34;5006530;28;19929;-69
2022/07/16 10:27:16;;;;;;;;;;;;;;;28.67;26.75;99452.41;5025505;28;19928;-64
2022/07/16 10:29:43;;;;;;;;;;;;;;;28.02;27.49;99471.00;5024334;28;19929;-65
2022/07/16 10:32:27;;;;;;;;;;;;;;;27.71;27.16;99453.75;5004870;28;19929;-65
2022/07/16 10:34:54;;;;;;;;;;;;;;;27.87;26.70;99460.97;5008613;28;19929;-65
2022/07/16 10:37:25;;;;;;;;;;;;;;;26.66;28.43;99464.63;5026973;28;19929;-66
2022/07/16 10:39:59;;;;;;;;;;;;;;;26.02;29.35;99457.41;5025293;28;20400;-66
2022/07/16 10:42:25;;;;;;;;;;;;;;;25.27;29.87;99461.91;5000014;28;19970;-65
2022/07/16 10:44:52;;;;;;;;;;;;;;;24.78;31.19;99464.53;5002694;28;20416;-65
2022/07/16 10:47:18;;;;;;;;;;;;;;;24.24;32.18;99476.94;5008350;28;19930;-64
2022/07/16 10:49:44;;;;;;;;;;;;;;;23.84;32.73;99468.72;4985554;28;19930;-65
2022/07/16 10:52:10;;;;;;;;;;;;;;;23.64;33.50;99473.53;4973624;28;19936;-66
2022/07/16 10:54:37;;;;;;;;;;;;;;;23.45;33.98;99474.44;5000903;28;19936;-65
2022/07/16 10:57:04;;;;;;;;;;;;;;;23.33;34.45;99478.16;5004764;28;20023;-67
2022/07/16 10:59:31;;;;;;;;;;;;;;;24.14;33.35;99484.78;5006363;28;19930;-67
2022/07/16 11:02:00;;;;;;;;;;;;;;;25.81;30.66;99480.44;5005547;28;20047;-68
2022/07/16 11:04:31;;;;;;;;;;;;;;;27.37;28.70;99478.53;5017381;28;19936;-68
2022/07/16 11:06:57;;;;;;;;;;;;;;;28.56;26.77;99478.53;5006435;28;19929;-67
2022/07/16 11:09:25;;;;;;;;;;;;;;;29.20;25.60;99475.09;5007717;28;19929;-69
2022/07/16 11:11:53;;;;;;;;;;;;;;;29.68;25.01;99471.56;4968624;28;19949;-68
2022/07/16 11:14:18;;;;;;;;;;;;;;;30.02;24.15;99487.00;4974813;28;19929;-68
2022/07/16 11:16:48;;;;;;;;;;;;;;;29.63;23.95;99479.66;5001557;28;19952;-68
2022/07/16 11:19:15;;;;;;;;;;;;;;;27.89;26.36;99487.44;5010169;28;20096;-68
2022/07/16 11:21:50;;;;;;;;;;;;;;;27.00;27.77;99486.81;5005706;28;20431;-69
2022/07/16 11:24:16;;;;;;;;;;;;;;;26.68;28.39;99484.66;5003614;28;20315;-66
2022/07/16 11:26:42;;;;;;;;;;;;;;;25.77;30.01;99481.22;5004242;28;19929;-68
2022/07/16 11:29:08;;;;;;;;;;;;;;;25.24;31.11;99479.47;4969666;28;20269;-68
2022/07/16 11:31:35;;;;;;;;;;;;;;;25.03;31.81;99483.63;4981448;28;20265;-68
2022/07/16 11:34:03;;;;;;;;;;;;;;;25.48;31.47;99492.13;4987789;28;19972;-67
2022/07/16 11:36:31;;;;;;;;;;;;;;;25.19;32.05;99483.41;5004939;28;20377;-68
2022/07/16 11:38:57;;;;;;;;;;;;;;;25.09;32.43;99497.25;5013322;28;19952;-67
2022/07/16 11:41:23;;;;;;;;;;;;;;;24.89;32.85;99491.84;4975036;28;19971;-65
2022/07/16 11:43:49;;;;;;;;;;;;;;;24.56;33.31;99485.78;4978014;28;20709;-65
2022/07/16 11:46:19;;;;;;;;;;;;;;;24.34;33.69;99490.25;4984242;28;19953;-65
2022/07/16 11:48:45;;;;;;;;;;;;;;;24.27;34.31;99495.75;4970348;28;19980;-64
2022/07/16 11:51:11;;;;;;;;;;;;;;;24.41;34.17;99492.34;4966134;28;20385;-64
2022/07/16 11:53:38;;;;;;;;;;;;;;;24.80;33.57;99489.34;4983409;28;19930;-65
2022/07/16 11:56:05;;;;;;;;;;;;;;;25.79;31.69;99500.44;4984221;28;19951;-65
2022/07/16 11:58:30;;;;;;;;;;;;;;;26.17;29.74;99506.75;4989291;28;19930;-68
2022/07/16 12:00:56;;;;;;;;;;;;;;;25.95;29.78;99496.56;4991681;28;19929;-65
2022/07/16 12:03:22;;;;;;;;;;;;;;;25.32;30.23;99500.75;5004001;28;19930;-65
2022/07/16 12:05:58;;;;;;;;;;;;;;;25.17;30.36;99496.97;5006883;28;20030;-66
2022/07/16 12:08:24;;;;;;;;;;;;;;;25.34;30.49;99492.75;4987522;28;19936;-65
2022/07/16 12:10:57;;;;;;;;;;;;;;;26.48;29.01;99493.34;5007904;28;19930;-66
2022/07/16 12:13:23;;;;;;;;;;;;;;;27.93;27.41;99493.06;4988860;28;20027;-65
2022/07/16 12:15:52;;;;;;;;;;;;;;;28.35;26.51;99501.88;5003160;28;20335;-69
2022/07/16 12:18:18;;;;;;;;;;;;;;;28.56;26.16;99501.03;4988086;28;19929;-65
2022/07/16 12:20:45;;;;;;;;;;;;;;;29.52;24.07;99491.00;4992313;28;20375;-65
2022/07/16 12:23:14;;;;;;;;;;;;;;;30.33;23.27;99492.78;5027038;28;20261;-65
2022/07/16 12:25:41;;;;;;;;;;;;;;;31.36;22.93;99485.53;5010023;28;19935;-66
2022/07/16 12:28:09;;;;;;;;;;;;;;;31.60;22.03;99488.41;5025609;28;19936;-65
2022/07/16 12:30:40;;;;;;;;;;;;;;;32.01;21.49;99499.91;5027501;28;20082;-66
2022/07/16 12:33:06;;;;;;;;;;;;;;;32.46;20.83;99496.69;5021129;28;19933;-65
2022/07/16 12:35:40;;;;;;;;;;;;;;;32.10;21.41;99486.03;5024667;28;19929;-65
2022/07/16 12:38:05;;;;;;;;;;;;;;;30.39;22.94;99482.63;5018332;28;19934;-66
2022/07/16 12:40:31;;;;;;;;;;;;;;;30.19;23.75;99478.84;4972633;28;19929;-66
2022/07/16 12:42:58;;;;;;;;;;;;;;;29.08;24.95;99470.72;5006992;28;20400;-65
2022/07/16 12:45:25;;;;;;;;;;;;;;;28.05;26.51;99465.78;4990450;28;19930;-65
2022/07/16 12:47:51;;;;;;;;;;;;;;;29.22;25.48;99483.91;5007883;28;20385;-65
2022/07/16 12:50:16;;;;;;;;;;;;;;;30.59;23.27;99496.13;5006723;28;19960;-65